Time;durP1;ratioP1;P1;durP2;ratioP2;P2;SDS_P1;SDS_P2;PMS_P1;PMS_P2;Temp;Humidity;BMP_temperature;BMP_pressure;BME280_temperature;BME280_humidity;BME280_pressure;Samples;Min_cycle;Max_cycle;Signal;HPM_P1;HPM_P2
2023/10/23 00:02:22;;;;;;;5.25;2.40;;;7.80;99.90;;;;;;5077405;28;20043;-78
2023/10/23 00:04:48;;;;;;;4.75;2.40;;;7.80;99.90;;;;;;5063002;28;20423;-78
2023/10/23 00:07:14;;;;;;;4.72;2.53;;;7.80;99.90;;;;;;5079269;28;20381;-78
2023/10/23 00:09:39;;;;;;;3.55;2.13;;;7.80;99.90;;;;;;5077762;28;20062;-78
2023/10/23 00:12:07;;;;;;;4.25;2.35;;;7.90;99.90;;;;;;5061177;28;20051;-78
2023/10/23 00:14:33;;;;;;;5.38;2.58;;;7.90;99.90;;;;;;5112274;28;20123;-78
2023/10/23 00:16:58;;;;;;;4.63;2.38;;;7.90;99.90;;;;;;5078618;28;20075;-78
2023/10/23 00:19:24;;;;;;;4.88;2.50;;;7.80;99.90;;;;;;5060817;28;20032;-78
2023/10/23 00:21:50;;;;;;;4.95;2.60;;;7.80;99.90;;;;;;5076357;28;20469;-79
2023/10/23 00:24:16;;;;;;;4.40;2.30;;;7.80;99.90;;;;;;5077967;28;20043;-79
2023/10/23 00:26:41;;;;;;;3.90;2.30;;;7.70;99.90;;;;;;5078343;28;20031;-79
2023/10/23 00:29:07;;;;;;;4.50;2.20;;;7.80;99.90;;;;;;5061469;28;20048;-79
2023/10/23 00:31:32;;;;;;;3.38;1.70;;;7.80;99.90;;;;;;5060706;28;20436;-79
2023/10/23 00:33:58;;;;;;;3.55;1.90;;;7.80;99.90;;;;;;5077924;28;20051;-79
2023/10/23 00:36:23;;;;;;;3.13;1.80;;;7.80;99.90;;;;;;5061525;28;20048;-79
2023/10/23 00:38:49;;;;;;;3.35;1.90;;;7.70;99.90;;;;;;5074501;28;20476;-78
2023/10/23 00:41:15;;;;;;;3.80;2.00;;;7.70;99.90;;;;;;5060457;28;20044;-79
2023/10/23 00:43:40;;;;;;;4.35;2.30;;;7.70;99.90;;;;;;5077833;28;20035;-78
2023/10/23 00:46:15;;;;;;;4.88;2.55;;;7.70;99.90;;;;;;5061449;28;20035;-79
2023/10/23 00:48:42;;;;;;;3.95;2.17;;;7.70;99.90;;;;;;5077835;28;20039;-79
2023/10/23 00:51:11;;;;;;;4.63;2.30;;;7.60;99.90;;;;;;5060556;28;20044;-79
2023/10/23 00:53:38;;;;;;;3.58;2.03;;;7.60;99.90;;;;;;5077663;28;20051;-79
2023/10/23 00:56:06;;;;;;;3.38;1.58;;;7.60;99.90;;;;;;5060947;28;20040;-79
2023/10/23 00:58:33;;;;;;;5.85;2.08;;;7.60;99.90;;;;;;5060974;28;20040;-79
2023/10/23 01:01:01;;;;;;;4.18;2.08;;;7.50;99.90;;;;;;5076686;28;20564;-79
2023/10/23 01:03:26;;;;;;;3.70;1.90;;;7.50;99.90;;;;;;5059427;28;20120;-79
2023/10/23 01:05:52;;;;;;;3.83;2.05;;;7.50;99.90;;;;;;5076709;28;20543;-79
2023/10/23 01:08:18;;;;;;;3.17;1.80;;;7.50;99.90;;;;;;5060069;28;20024;-79
2023/10/23 01:10:44;;;;;;;3.08;2.05;;;7.40;99.90;;;;;;5059202;28;20042;-79
2023/10/23 01:13:10;;;;;;;3.72;1.92;;;7.40;99.90;;;;;;5077015;28;20414;-79
2023/10/23 01:15:36;;;;;;;3.22;1.90;;;7.40;99.90;;;;;;5060773;28;20042;-79
2023/10/23 01:18:06;;;;;;;4.43;2.17;;;7.40;99.90;;;;;;5060469;28;20036;-79
2023/10/23 01:20:32;;;;;;;3.08;1.73;;;7.40;99.90;;;;;;5075411;28;20028;-79
2023/10/23 01:22:59;;;;;;;3.17;1.70;;;7.40;99.90;;;;;;5075936;28;20039;-79
2023/10/23 01:25:25;;;;;;;5.38;2.05;;;7.40;99.90;;;;;;5085821;28;20395;-79
2023/10/23 01:27:51;;;;;;;3.88;1.88;;;7.40;99.90;;;;;;5076408;28;20047;-79
2023/10/23 01:30:17;;;;;;;3.30;1.75;;;7.40;99.90;;;;;;5059639;28;20032;-79
2023/10/23 01:32:42;;;;;;;3.28;1.80;;;7.40;99.90;;;;;;5093310;28;20044;-79
2023/10/23 01:35:10;;;;;;;3.53;2.30;;;7.40;99.90;;;;;;5060412;28;20511;-79
2023/10/23 01:37:36;;;;;;;4.50;2.17;;;7.30;99.90;;;;;;5076865;28;20035;-79
2023/10/23 01:40:02;;;;;;;3.53;2.30;;;7.30;99.90;;;;;;5059261;28;20058;-79
2023/10/23 01:42:30;;;;;;;4.20;2.50;;;7.30;99.90;;;;;;5059795;28;20042;-79
2023/10/23 01:44:59;;;;;;;4.28;2.30;;;7.30;99.90;;;;;;5102105;27;20086;-79
2023/10/23 01:47:26;;;;;;;5.50;2.65;;;7.30;99.90;;;;;;5058851;28;20043;-79
2023/10/23 01:49:51;;;;;;;5.68;2.70;;;7.40;99.90;;;;;;5059515;28;20484;-79
2023/10/23 01:52:17;;;;;;;5.70;3.10;;;7.20;99.90;;;;;;5093555;28;20127;-79
2023/10/23 01:54:43;;;;;;;5.85;2.75;;;7.20;99.90;;;;;;5056424;28;20581;-79
2023/10/23 01:57:12;;;;;;;7.07;3.13;;;7.10;99.90;;;;;;5076075;28;20055;-79
2023/10/23 01:59:38;;;;;;;5.25;2.53;;;7.20;99.90;;;;;;5075583;28;20032;-79
2023/10/23 02:02:04;;;;;;;6.10;2.80;;;7.10;99.90;;;;;;5059647;28;20039;-79
2023/10/23 02:04:30;;;;;;;3.72;2.17;;;7.20;99.90;;;;;;5055554;28;20362;-79
2023/10/23 02:06:56;;;;;;;3.75;1.83;;;7.20;99.90;;;;;;5075237;28;20039;-79
2023/10/23 02:09:22;;;;;;;2.88;1.50;;;7.20;99.90;;;;;;5075269;28;20050;-79
2023/10/23 02:11:48;;;;;;;1.70;1.17;;;7.20;99.90;;;;;;5058735;28;20404;-79
2023/10/23 02:14:14;;;;;;;1.35;1.00;;;7.20;99.90;;;;;;5055561;28;20465;-79
2023/10/23 02:16:39;;;;;;;1.92;1.10;;;7.10;99.90;;;;;;5065751;28;20043;-80
2023/10/23 02:19:05;;;;;;;2.65;1.10;;;7.10;99.90;;;;;;5075943;28;20044;-79
2023/10/23 02:21:31;;;;;;;1.63;1.02;;;7.10;99.90;;;;;;5075845;28;20032;-79
2023/10/23 02:23:56;;;;;;;1.13;0.95;;;7.00;99.90;;;;;;5073623;28;20169;-79
2023/10/23 02:26:22;;;;;;;1.30;0.90;;;7.00;99.90;;;;;;5068271;28;20038;-79
2023/10/23 02:28:48;;;;;;;0.98;0.88;;;7.00;99.90;;;;;;5075996;28;20036;-80
2023/10/23 02:31:14;;;;;;;1.00;0.90;;;6.90;99.90;;;;;;5075205;28;20036;-80
2023/10/23 02:33:40;;;;;;;1.15;0.90;;;6.90;99.90;;;;;;5058479;28;20507;-80
2023/10/23 02:36:06;;;;;;;1.48;0.90;;;6.80;99.90;;;;;;5059048;28;20040;-80
2023/10/23 02:38:32;;;;;;;0.73;0.73;;;6.80;99.90;;;;;;5083498;28;20051;-80
2023/10/23 02:40:58;;;;;;;0.68;0.60;;;6.80;99.90;;;;;;5086980;28;21243;-80
2023/10/23 02:43:24;;;;;;;0.80;0.70;;;6.80;99.90;;;;;;5057616;28;20472;-80
2023/10/23 02:45:50;;;;;;;1.10;0.90;;;6.70;99.90;;;;;;5057699;28;20081;-80
2023/10/23 02:48:17;;;;;;;2.72;1.50;;;6.70;99.90;;;;;;5055719;28;20047;-80
2023/10/23 02:50:51;;;;;;;2.67;1.67;;;6.70;99.90;;;;;;5056399;28;20430;-79
2023/10/23 02:53:17;;;;;;;4.13;2.08;;;6.60;99.90;;;;;;5097411;28;20036;-79
2023/10/23 02:55:43;;;;;;;4.60;2.30;;;6.60;99.90;;;;;;5057421;28;20082;-80
2023/10/23 02:58:08;;;;;;;4.72;2.40;;;6.60;99.90;;;;;;5075265;28;20080;-79
2023/10/23 03:00:34;;;;;;;4.13;2.33;;;6.70;99.90;;;;;;5073389;28;20040;-79
2023/10/23 03:03:00;;;;;;;5.45;2.80;;;6.60;99.90;;;;;;5075245;28;20032;-79
2023/10/23 03:05:26;;;;;;;4.55;2.22;;;6.70;99.90;;;;;;5070694;28;20126;-79
2023/10/23 03:07:51;;;;;;;3.85;2.30;;;6.60;99.90;;;;;;5075279;28;20097;-79
2023/10/23 03:10:17;;;;;;;3.70;2.03;;;6.60;99.90;;;;;;5060103;28;20480;-79
2023/10/23 03:12:43;;;;;;;4.88;2.28;;;6.50;99.90;;;;;;5072658;28;20036;-81
2023/10/23 03:15:08;;;;;;;3.92;2.25;;;6.50;99.90;;;;;;5074350;28;20445;-80
2023/10/23 03:17:34;;;;;;;4.32;2.53;;;6.60;99.90;;;;;;5075259;28;20043;-80
2023/10/23 03:20:00;;;;;;;4.35;1.70;;;6.60;99.90;;;;;;5058410;28;20040;-79
2023/10/23 03:22:25;;;;;;;5.38;2.03;;;6.60;99.90;;;;;;5091363;28;20408;-79
2023/10/23 03:24:51;;;;;;;4.15;2.15;;;6.60;99.90;;;;;;5058665;28;20036;-80
2023/10/23 03:27:16;;;;;;;3.45;2.00;;;6.60;99.90;;;;;;5075224;28;20543;-80
2023/10/23 03:29:43;;;;;;;4.10;2.38;;;6.60;99.90;;;;;;5058669;28;20043;-80
2023/10/23 03:32:09;;;;;;;3.45;2.08;;;6.60;99.90;;;;;;5074067;28;20416;-80
2023/10/23 03:34:34;;;;;;;3.97;2.30;;;6.50;99.90;;;;;;5058294;28;20048;-80
2023/10/23 03:37:00;;;;;;;4.53;2.38;;;6.50;99.90;;;;;;5108203;28;20475;-80
2023/10/23 03:39:26;;;;;;;4.95;2.70;;;6.50;99.90;;;;;;5061647;28;20455;-81
2023/10/23 03:41:51;;;;;;;4.28;2.40;;;6.50;99.90;;;;;;5054886;28;20472;-81
2023/10/23 03:44:17;;;;;;;3.33;2.20;;;6.50;99.90;;;;;;5061228;28;20038;-81
2023/10/23 03:46:42;;;;;;;4.10;2.00;;;6.50;99.90;;;;;;5073731;28;20036;-80
2023/10/23 03:49:08;;;;;;;3.92;2.10;;;6.50;99.90;;;;;;5074771;28;20054;-83
2023/10/23 03:51:34;;;;;;;3.58;1.95;;;6.50;99.90;;;;;;5073132;28;20488;-79
2023/10/23 03:54:00;;;;;;;3.40;1.88;;;6.50;99.90;;;;;;5081919;28;20443;-79
2023/10/23 03:56:25;;;;;;;3.42;1.90;;;6.50;99.90;;;;;;5058285;28;20036;-79
2023/10/23 03:58:51;;;;;;;3.33;2.05;;;6.40;99.90;;;;;;5072022;28;20048;-80
2023/10/23 04:01:17;;;;;;;4.65;2.42;;;6.40;99.90;;;;;;5079253;28;20058;-81
2023/10/23 04:03:42;;;;;;;5.00;2.60;;;6.30;99.90;;;;;;5074567;28;20396;-80
2023/10/23 04:06:08;;;;;;;4.28;2.60;;;6.30;99.90;;;;;;5057236;28;20036;-80
2023/10/23 04:08:33;;;;;;;4.03;2.42;;;6.40;99.90;;;;;;5074707;28;20119;-81
2023/10/23 04:10:59;;;;;;;4.38;2.53;;;6.30;99.90;;;;;;5070571;28;20033;-79
2023/10/23 04:13:25;;;;;;;3.03;1.95;;;6.30;99.90;;;;;;5058977;28;20399;-80
2023/10/23 04:15:55;;;;;;;3.95;2.47;;;6.30;99.90;;;;;;5060997;28;20115;-80
2023/10/23 04:18:22;;;;;;;4.10;2.60;;;6.30;99.90;;;;;;5078333;28;20050;-80
2023/10/23 04:20:47;;;;;;;4.57;2.50;;;6.30;99.90;;;;;;5076348;28;20489;-80
2023/10/23 04:23:13;;;;;;;4.15;2.50;;;6.30;99.90;;;;;;5077092;28;20067;-80
2023/10/23 04:25:38;;;;;;;4.95;2.45;;;6.20;99.90;;;;;;5078184;28;20380;-80
2023/10/23 04:28:04;;;;;;;4.32;2.80;;;6.20;99.90;;;;;;5078455;28;20044;-80
2023/10/23 04:30:30;;;;;;;5.20;2.67;;;6.20;99.90;;;;;;5060122;28;20044;-80
2023/10/23 04:32:56;;;;;;;5.00;2.60;;;6.10;99.90;;;;;;5076265;28;20066;-80
2023/10/23 04:35:22;;;;;;;4.88;3.00;;;6.10;99.90;;;;;;5077672;28;20431;-80
2023/10/23 04:37:47;;;;;;;3.92;2.58;;;6.10;99.90;;;;;;5061259;28;20089;-80
2023/10/23 04:40:13;;;;;;;5.32;3.05;;;6.10;99.90;;;;;;5077257;28;20044;-80
2023/10/23 04:42:39;;;;;;;5.22;2.70;;;6.10;99.90;;;;;;5076781;28;20028;-80
2023/10/23 04:45:05;;;;;;;4.95;2.97;;;6.10;99.90;;;;;;5098772;28;20040;-80
2023/10/23 04:47:31;;;;;;;6.53;3.40;;;6.10;99.90;;;;;;5076913;28;20036;-80
2023/10/23 04:49:56;;;;;;;5.53;3.13;;;6.10;99.90;;;;;;5060970;28;20058;-80
2023/10/23 04:52:23;;;;;;;6.18;3.17;;;6.10;99.90;;;;;;5073206;28;20396;-80
2023/10/23 04:54:50;;;;;;;6.70;3.15;;;6.10;99.90;;;;;;5094518;28;20043;-80
2023/10/23 04:57:15;;;;;;;6.38;3.53;;;6.10;99.90;;;;;;5060796;28;20051;-80
2023/10/23 04:59:41;;;;;;;4.03;2.50;;;6.10;99.90;;;;;;5061008;28;20511;-80
2023/10/23 05:02:06;;;;;;;4.60;2.60;;;6.10;99.90;;;;;;5073703;28;20040;-80
2023/10/23 05:04:32;;;;;;;4.18;2.40;;;6.00;99.90;;;;;;5042630;28;20047;-80
2023/10/23 05:06:59;;;;;;;3.13;1.95;;;6.10;99.90;;;;;;5077222;28;20044;-80
2023/10/23 05:09:25;;;;;;;2.97;1.90;;;6.10;99.90;;;;;;5094332;28;20044;-80
2023/10/23 05:11:50;;;;;;;4.25;1.88;;;6.10;99.90;;;;;;5075039;28;21779;-80
2023/10/23 05:14:16;;;;;;;3.45;1.83;;;6.00;99.90;;;;;;5060546;28;20043;-80
2023/10/23 05:16:41;;;;;;;4.07;2.28;;;6.00;99.90;;;;;;5043855;28;20048;-80
2023/10/23 05:19:10;;;;;;;3.80;2.05;;;6.00;99.90;;;;;;5057313;28;20041;-80
2023/10/23 05:21:37;;;;;;;4.43;2.55;;;6.00;99.90;;;;;;5071333;28;20495;-80
2023/10/23 05:24:03;;;;;;;4.40;2.45;;;6.00;99.90;;;;;;5059132;28;20090;-79
2023/10/23 05:26:28;;;;;;;4.45;2.60;;;6.00;99.90;;;;;;5074558;28;20039;-80
2023/10/23 05:28:54;;;;;;;5.13;2.83;;;5.90;99.90;;;;;;5060141;28;20054;-80
2023/10/23 05:31:20;;;;;;;5.07;2.83;;;5.90;99.90;;;;;;5052394;28;20052;-80
2023/10/23 05:33:45;;;;;;;6.60;2.92;;;5.80;99.90;;;;;;5056889;28;20071;-80
2023/10/23 05:36:11;;;;;;;5.93;2.95;;;5.90;99.90;;;;;;5040101;28;20530;-80
2023/10/23 05:38:38;;;;;;;4.72;2.70;;;5.80;99.90;;;;;;5042032;28;20036;-80
2023/10/23 05:41:05;;;;;;;4.28;2.80;;;5.80;99.90;;;;;;5053553;28;20499;-80
2023/10/23 05:43:31;;;;;;;7.90;3.10;;;5.80;99.90;;;;;;5040097;28;20033;-80
2023/10/23 05:46:01;;;;;;;6.53;3.53;;;5.80;99.90;;;;;;5056873;28;20036;-80
2023/10/23 05:48:26;;;;;;;8.05;4.65;;;5.80;99.90;;;;;;5039887;28;20037;-80
2023/10/23 05:51:03;;;;;;;6.47;4.03;;;5.80;99.90;;;;;;5061322;28;20381;-80
2023/10/23 05:53:29;;;;;;;8.98;4.90;;;5.80;99.90;;;;;;5076570;28;20032;-80
2023/10/23 05:56:03;;;;;;;6.75;4.03;;;5.80;99.90;;;;;;5076378;28;20036;-80
2023/10/23 05:58:29;;;;;;;8.25;4.50;;;5.80;99.90;;;;;;5058296;28;20052;-80
2023/10/23 06:00:55;;;;;;;7.68;4.47;;;5.80;99.90;;;;;;5100480;28;20048;-80
2023/10/23 06:03:21;;;;;;;9.20;4.95;;;5.80;99.90;;;;;;5061897;28;20028;-80
2023/10/23 06:05:46;;;;;;;7.57;4.30;;;5.80;99.90;;;;;;5093177;28;20039;-80
2023/10/23 06:08:12;;;;;;;5.82;3.67;;;5.70;99.90;;;;;;5055653;28;20503;-80
2023/10/23 06:10:44;;;;;;;6.18;2.97;;;5.70;99.90;;;;;;5081445;28;20032;-80
2023/10/23 06:13:11;;;;;;;5.75;2.60;;;5.80;99.90;;;;;;5073981;28;20035;-80
2023/10/23 06:15:37;;;;;;;4.35;2.70;;;5.80;99.90;;;;;;5046195;28;20594;-80
2023/10/23 06:18:03;;;;;;;4.05;2.70;;;5.80;99.90;;;;;;5052604;28;20044;-80
2023/10/23 06:20:30;;;;;;;7.00;3.30;;;5.80;99.90;;;;;;5071493;28;20496;-80
2023/10/23 06:22:56;;;;;;;6.38;3.65;;;5.70;99.90;;;;;;5107664;28;20040;-80
2023/10/23 06:25:21;;;;;;;6.10;3.55;;;5.70;99.90;;;;;;5081194;28;20487;-80
2023/10/23 06:27:47;;;;;;;6.32;3.58;;;5.70;99.90;;;;;;5060203;28;20119;-80
2023/10/23 06:30:13;;;;;;;7.78;3.83;;;5.70;99.90;;;;;;5055523;28;20036;-80
2023/10/23 06:32:38;;;;;;;6.13;3.28;;;5.70;99.90;;;;;;5057808;28;20055;-80
2023/10/23 06:35:04;;;;;;;3.60;2.42;;;5.80;99.90;;;;;;5073793;28;20032;-80
2023/10/23 06:37:33;;;;;;;5.97;2.38;;;5.80;99.90;;;;;;5062377;28;20046;-80
2023/10/23 06:39:59;;;;;;;4.53;2.40;;;5.80;99.90;;;;;;5054074;28;20044;-80
2023/10/23 06:42:27;;;;;;;7.20;3.55;;;5.70;99.90;;;;;;5054937;28;20167;-80
2023/10/23 06:44:53;;;;;;;7.78;3.20;;;5.70;99.90;;;;;;5073866;28;20043;-80
2023/10/23 06:47:19;;;;;;;5.20;2.95;;;5.60;99.90;;;;;;5054046;28;20400;-80
2023/10/23 06:49:44;;;;;;;4.45;2.90;;;5.70;99.90;;;;;;5074205;28;20040;-81
2023/10/23 06:52:10;;;;;;;5.00;2.60;;;5.70;99.90;;;;;;5056147;28;20039;-80
2023/10/23 06:54:36;;;;;;;6.03;2.83;;;5.60;99.90;;;;;;5072009;28;20044;-80
2023/10/23 06:57:08;;;;;;;5.57;3.00;;;5.60;99.90;;;;;;5056909;28;20097;-81
2023/10/23 06:59:36;;;;;;;5.13;3.00;;;5.60;99.90;;;;;;5074130;28;20040;-80
2023/10/23 07:02:02;;;;;;;5.03;2.85;;;5.60;99.90;;;;;;5072751;28;20073;-81
2023/10/23 07:04:29;;;;;;;5.82;3.22;;;5.50;99.90;;;;;;5056036;28;20036;-80
2023/10/23 07:06:55;;;;;;;5.55;3.22;;;5.50;99.90;;;;;;5056012;28;20028;-80
2023/10/23 07:09:21;;;;;;;5.38;3.25;;;5.60;99.90;;;;;;5072892;28;20456;-80
2023/10/23 07:11:48;;;;;;;5.60;3.30;;;5.60;99.90;;;;;;5086989;28;20050;-80
2023/10/23 07:14:14;;;;;;;6.55;3.60;;;5.60;99.90;;;;;;5057808;28;20385;-80
2023/10/23 07:16:40;;;;;;;6.10;3.13;;;5.70;99.90;;;;;;5058139;28;20039;-80
2023/10/23 07:19:06;;;;;;;5.22;3.03;;;5.70;99.90;;;;;;5083012;28;20037;-80
2023/10/23 07:21:32;;;;;;;5.75;3.50;;;5.70;99.90;;;;;;5081547;28;20032;-80
2023/10/23 07:23:57;;;;;;;5.80;3.58;;;5.70;99.90;;;;;;5042915;28;20043;-80
2023/10/23 07:26:23;;;;;;;6.93;3.90;;;5.80;99.90;;;;;;5054939;28;20043;-80
2023/10/23 07:28:50;;;;;;;7.00;4.30;;;5.90;99.90;;;;;;5058972;28;20468;-80
2023/10/23 07:31:16;;;;;;;7.28;3.83;;;5.90;99.90;;;;;;5058630;28;20040;-81
2023/10/23 07:33:42;;;;;;;6.65;4.13;;;6.00;99.90;;;;;;5084928;28;20048;-80
2023/10/23 07:36:12;;;;;;;7.38;4.53;;;6.00;99.90;;;;;;5053232;28;20404;-80
2023/10/23 07:38:43;;;;;;;8.10;4.97;;;6.10;99.90;;;;;;5047301;28;20040;-80
2023/10/23 07:41:13;;;;;;;8.73;5.50;;;6.40;99.90;;;;;;5076120;28;20540;-80
2023/10/23 07:43:39;;;;;;;10.40;5.75;;;6.60;99.90;;;;;;5073418;28;20036;-80
2023/10/23 07:46:06;;;;;;;8.10;5.35;;;6.60;99.90;;;;;;5072195;28;20028;-80
2023/10/23 07:48:32;;;;;;;8.88;5.85;;;6.60;99.90;;;;;;5069616;28;20032;-81
2023/10/23 07:50:58;;;;;;;9.88;6.03;;;6.70;99.90;;;;;;5069787;28;20032;-80
2023/10/23 07:53:24;;;;;;;9.18;5.65;;;6.80;99.90;;;;;;5077341;28;20036;-80
2023/10/23 07:55:50;;;;;;;10.13;6.40;;;6.80;99.90;;;;;;5076060;28;20089;-80
2023/10/23 07:58:15;;;;;;;9.95;6.43;;;6.90;99.90;;;;;;5075316;28;20408;-80
2023/10/23 08:00:41;;;;;;;8.95;5.65;;;6.90;99.90;;;;;;5093423;28;20036;-80
2023/10/23 08:03:07;;;;;;;12.00;6.35;;;7.00;99.90;;;;;;5093890;28;20036;-80
2023/10/23 08:05:32;;;;;;;10.65;6.00;;;7.10;99.90;;;;;;5060463;28;20075;-80
2023/10/23 08:07:58;;;;;;;10.45;6.75;;;7.10;99.90;;;;;;5060281;28;20042;-80
2023/10/23 08:10:24;;;;;;;10.13;6.85;;;7.20;99.90;;;;;;5077132;28;20040;-81
2023/10/23 08:12:49;;;;;;;11.02;7.13;;;7.20;99.90;;;;;;5092510;28;20040;-81
2023/10/23 08:15:15;;;;;;;11.55;7.38;;;7.40;99.90;;;;;;5076855;28;20044;-80
2023/10/23 08:17:41;;;;;;;11.00;7.43;;;7.40;99.90;;;;;;5076953;28;20090;-80
2023/10/23 08:20:07;;;;;;;13.55;8.45;;;7.40;99.90;;;;;;5076184;28;20043;-81
2023/10/23 08:22:34;;;;;;;13.65;9.02;;;7.50;99.90;;;;;;5059671;28;20093;-80
2023/10/23 08:24:59;;;;;;;14.35;9.02;;;7.60;99.90;;;;;;5076002;28;20476;-81
2023/10/23 08:27:25;;;;;;;12.57;8.90;;;7.60;99.90;;;;;;5078005;28;20100;-81
2023/10/23 08:29:50;;;;;;;13.18;8.50;;;7.60;99.90;;;;;;5075877;28;20484;-82
2023/10/23 08:32:16;;;;;;;10.65;7.88;;;7.70;99.90;;;;;;5046178;28;20040;-81
2023/10/23 08:34:42;;;;;;;12.73;9.10;;;7.80;99.90;;;;;;5048041;28;20043;-81
2023/10/23 08:37:08;;;;;;;12.93;8.30;;;7.90;99.90;;;;;;5059578;28;20539;-81
2023/10/23 08:39:33;;;;;;;14.38;8.75;;;7.90;99.90;;;;;;5056183;28;20039;-81
2023/10/23 08:42:03;;;;;;;17.45;10.07;;;8.20;99.90;;;;;;5091888;28;20070;-81
2023/10/23 08:44:29;;;;;;;12.52;8.77;;;8.30;99.90;;;;;;5073550;28;20389;-81
2023/10/23 08:46:55;;;;;;;15.45;10.43;;;8.30;99.90;;;;;;5104063;28;20039;-81
2023/10/23 08:49:21;;;;;;;14.02;9.98;;;8.50;99.90;;;;;;5093148;28;20035;-81
2023/10/23 08:51:53;;;;;;;16.52;10.80;;;8.50;99.90;;;;;;5075887;28;20047;-81
2023/10/23 08:54:21;;;;;;;15.98;10.30;;;8.60;99.90;;;;;;5076246;28;20094;-81
2023/10/23 08:56:56;;;;;;;14.57;10.25;;;8.70;99.90;;;;;;5096754;28;20656;-81
2023/10/23 08:59:22;;;;;;;14.90;10.23;;;8.80;99.90;;;;;;5093169;28;20044;-81
2023/10/23 09:01:48;;;;;;;14.77;10.32;;;8.90;99.90;;;;;;5081478;28;20046;-81
2023/10/23 09:04:13;;;;;;;13.32;9.52;;;9.00;99.90;;;;;;5085481;28;20063;-81
2023/10/23 09:06:39;;;;;;;16.35;11.90;;;9.20;99.90;;;;;;5060253;28;20477;-81
2023/10/23 09:09:06;;;;;;;15.68;10.88;;;9.40;99.90;;;;;;5074110;28;20074;-81
2023/10/23 09:11:45;;;;;;;16.98;10.88;;;9.30;99.90;;;;;;5055651;28;20055;-81
2023/10/23 09:14:22;;;;;;;15.30;10.00;;;9.50;99.90;;;;;;5075443;28;20047;-81
2023/10/23 09:16:48;;;;;;;14.05;10.07;;;9.80;99.90;;;;;;5057181;28;20036;-82
2023/10/23 09:19:24;;;;;;;13.50;9.85;;;9.80;99.90;;;;;;5074801;28;20032;-82
2023/10/23 09:21:55;;;;;;;14.55;10.40;;;9.90;99.90;;;;;;5055377;28;20115;-81
2023/10/23 09:24:22;;;;;;;14.57;10.25;;;10.00;99.90;;;;;;5058106;28;20139;-82
2023/10/23 09:26:52;;;;;;;15.25;9.43;;;10.00;99.90;;;;;;5074387;28;20435;-81
2023/10/23 09:29:25;;;;;;;14.73;9.80;;;10.20;99.90;;;;;;5058523;28;20067;-82
2023/10/23 09:31:54;;;;;;;12.80;9.15;;;10.30;99.90;;;;;;5057746;28;20449;-81
2023/10/23 09:34:21;;;;;;;14.80;10.13;;;10.40;99.90;;;;;;5069165;28;20043;-81
2023/10/23 09:36:51;;;;;;;17.08;10.70;;;10.50;99.90;;;;;;5105356;27;20047;-81
2023/10/23 09:39:18;;;;;;;17.10;11.80;;;10.50;99.90;;;;;;5059008;28;20085;-81
2023/10/23 09:41:45;;;;;;;13.27;9.98;;;10.60;99.90;;;;;;5058675;28;20047;-82
2023/10/23 09:44:13;;;;;;;13.05;9.07;;;10.60;99.90;;;;;;5059576;28;20032;-82
2023/10/23 09:46:41;;;;;;;11.25;7.93;;;10.80;99.90;;;;;;5073761;28;20089;-81
2023/10/23 09:49:09;;;;;;;13.05;7.45;;;10.90;99.90;;;;;;5057555;28;20035;-82
2023/10/23 09:51:40;;;;;;;11.73;7.40;;;11.00;99.90;;;;;;5058941;28;20408;-82
2023/10/23 09:54:17;;;;;;;13.38;7.72;;;11.10;99.90;;;;;;5058537;28;20047;-82
2023/10/23 09:56:51;;;;;;;14.57;9.15;;;11.30;99.90;;;;;;5092651;28;20060;-81
2023/10/23 09:59:19;;;;;;;15.30;8.63;;;11.30;99.90;;;;;;5074104;28;20044;-82
2023/10/23 10:01:49;;;;;;;12.40;7.95;;;11.40;99.90;;;;;;5058430;28;20035;-82
2023/10/23 10:04:33;;;;;;;13.40;8.15;;;11.40;99.90;;;;;;5074970;28;20046;-81
2023/10/23 10:07:11;;;;;;;11.57;6.80;;;11.50;99.90;;;;;;5057935;28;20036;-82
2023/10/23 10:09:38;;;;;;;11.43;6.60;;;11.50;99.90;;;;;;5075601;28;20177;-82
2023/10/23 10:12:04;;;;;;;10.52;6.03;;;11.60;99.90;;;;;;5057182;28;20496;-83
2023/10/23 10:14:31;;;;;;;10.95;5.80;;;11.70;99.90;;;;;;5057919;28;20055;-83
2023/10/23 10:16:57;;;;;;;9.85;5.63;;;11.80;99.90;;;;;;5072444;28;20039;-83
2023/10/23 10:19:26;;;;;;;9.15;5.63;;;11.90;99.90;;;;;;5103718;28;20040;-83
2023/10/23 10:22:08;;;;;;;11.15;6.13;;;11.90;99.90;;;;;;5073776;28;20036;-83
2023/10/23 10:24:37;;;;;;;8.90;5.73;;;11.80;99.90;;;;;;5091658;28;20042;-83
2023/10/23 10:27:03;;;;;;;9.15;5.70;;;11.90;99.90;;;;;;5074316;28;20042;-83
2023/10/23 10:29:30;;;;;;;8.80;5.20;;;12.00;99.90;;;;;;5054815;28;20051;-83
2023/10/23 10:32:11;;;;;;;9.18;4.53;;;12.00;99.90;;;;;;5082446;28;20454;-83
2023/10/23 10:34:59;;;;;;;9.65;4.95;;;12.00;99.90;;;;;;5088913;28;20040;-83
2023/10/23 10:37:27;;;;;;;8.85;4.50;;;12.10;99.90;;;;;;5057685;28;20051;-83
2023/10/23 10:39:56;;;;;;;8.60;5.47;;;12.10;99.90;;;;;;5057905;28;20043;-83
2023/10/23 10:42:28;;;;;;;10.10;5.50;;;12.10;99.90;;;;;;5073455;28;20109;-83
2023/10/23 10:44:58;;;;;;;11.65;6.55;;;12.20;99.90;;;;;;5057149;28;20043;-83
2023/10/23 10:47:36;;;;;;;10.48;6.93;;;12.20;99.90;;;;;;5074262;28;20040;-83
2023/10/23 10:50:04;;;;;;;9.13;5.80;;;12.20;99.90;;;;;;5071626;28;20058;-83
2023/10/23 10:52:33;;;;;;;11.35;7.20;;;12.20;99.90;;;;;;5095758;28;20049;-83
2023/10/23 10:55:09;;;;;;;12.05;8.25;;;12.30;99.90;;;;;;5085447;28;20032;-83
2023/10/23 10:57:43;;;;;;;14.52;7.90;;;12.30;99.90;;;;;;5064750;28;20055;-82
2023/10/23 11:00:09;;;;;;;10.38;7.22;;;12.30;99.90;;;;;;5070392;28;20040;-82
2023/10/23 11:02:36;;;;;;;10.05;7.10;;;12.30;99.90;;;;;;5053316;28;20041;-82
2023/10/23 11:05:12;;;;;;;10.75;7.38;;;12.40;99.90;;;;;;5070556;28;20400;-82
2023/10/23 11:07:38;;;;;;;11.77;8.45;;;12.40;99.90;;;;;;5052947;28;20422;-83
2023/10/23 11:10:08;;;;;;;12.75;8.05;;;12.40;99.90;;;;;;5054661;28;20128;-83
2023/10/23 11:12:34;;;;;;;12.68;7.55;;;12.40;99.90;;;;;;5053451;28;20374;-82
2023/10/23 11:15:00;;;;;;;11.82;8.18;;;12.40;99.90;;;;;;5066367;28;20036;-82
2023/10/23 11:17:25;;;;;;;11.10;7.55;;;12.40;99.90;;;;;;5054656;28;20044;-83
2023/10/23 11:19:51;;;;;;;15.43;10.05;;;12.50;99.90;;;;;;5071674;28;20028;-82
2023/10/23 11:22:21;;;;;;;13.68;10.68;;;12.50;99.90;;;;;;5054736;28;20037;-83
2023/10/23 11:24:47;;;;;;;16.95;11.57;;;12.60;99.90;;;;;;5053895;28;20362;-82
2023/10/23 11:27:13;;;;;;;15.80;11.90;;;12.70;99.90;;;;;;5055054;28;20040;-83
2023/10/23 11:29:44;;;;;;;14.93;10.43;;;12.60;99.90;;;;;;5053693;28;20492;-82
2023/10/23 11:32:14;;;;;;;14.73;10.87;;;12.50;99.90;;;;;;5054658;28;20040;-82
2023/10/23 11:34:39;;;;;;;13.15;9.73;;;12.50;99.90;;;;;;5070326;28;20090;-82
2023/10/23 11:37:07;;;;;;;15.75;10.05;;;12.40;99.90;;;;;;5071040;28;20037;-83
2023/10/23 11:39:35;;;;;;;13.20;10.52;;;12.40;99.90;;;;;;5055945;28;20036;-82
2023/10/23 11:42:01;;;;;;;12.75;9.77;;;12.50;99.90;;;;;;5052715;28;20063;-82
2023/10/23 11:44:27;;;;;;;14.73;10.75;;;12.30;99.90;;;;;;5069396;28;20037;-82
2023/10/23 11:47:01;;;;;;;13.43;8.55;;;12.10;99.90;;;;;;5070609;28;20040;-82
2023/10/23 11:49:27;;;;;;;14.55;9.95;;;12.10;99.90;;;;;;5069382;28;20036;-82
2023/10/23 11:51:55;;;;;;;13.55;9.10;;;12.00;99.90;;;;;;5053246;28;20097;-82
2023/10/23 11:54:22;;;;;;;13.30;10.00;;;11.90;99.90;;;;;;5053417;28;20044;-82
2023/10/23 11:56:48;;;;;;;12.60;9.25;;;11.80;99.90;;;;;;5068434;28;20048;-81
2023/10/23 11:59:15;;;;;;;12.73;9.38;;;11.90;99.90;;;;;;5070854;28;20132;-82
2023/10/23 12:01:42;;;;;;;12.48;9.43;;;11.80;99.90;;;;;;5054119;28;20463;-82
2023/10/23 12:04:08;;;;;;;10.40;6.63;;;11.70;99.90;;;;;;5068419;28;20036;-82
2023/10/23 12:06:35;;;;;;;12.10;9.15;;;11.70;99.90;;;;;;5054422;28;20040;-82
2023/10/23 12:09:01;;;;;;;14.55;9.70;;;11.70;99.90;;;;;;5070055;28;20040;-82
2023/10/23 12:11:28;;;;;;;13.98;10.18;;;11.60;99.90;;;;;;5069680;28;20040;-82
2023/10/23 12:13:54;;;;;;;13.55;9.57;;;11.60;99.90;;;;;;5053374;28;20160;-82
2023/10/23 12:16:20;;;;;;;12.82;8.95;;;11.60;99.90;;;;;;5052561;28;20504;-81
2023/10/23 12:18:45;;;;;;;10.98;8.20;;;11.50;99.90;;;;;;5071982;28;20426;-81
2023/10/23 12:21:12;;;;;;;12.18;8.73;;;11.50;99.90;;;;;;5068521;28;20102;-81
2023/10/23 12:23:38;;;;;;;12.82;9.30;;;11.50;99.90;;;;;;5036450;28;20493;-82
2023/10/23 12:26:03;;;;;;;11.45;9.25;;;11.50;99.90;;;;;;5044372;28;20033;-81
2023/10/23 12:28:29;;;;;;;11.85;7.60;;;11.50;99.90;;;;;;5053682;28;20037;-81
2023/10/23 12:30:55;;;;;;;11.55;8.57;;;11.70;99.90;;;;;;5052729;28;20047;-81
2023/10/23 12:33:20;;;;;;;10.82;7.40;;;11.80;99.90;;;;;;5068469;28;20075;-81
2023/10/23 12:35:46;;;;;;;11.13;7.10;;;11.80;99.90;;;;;;5056512;28;20037;-81
2023/10/23 12:38:12;;;;;;;12.77;8.52;;;11.90;99.90;;;;;;5056667;28;20512;-81
2023/10/23 12:40:43;;;;;;;11.82;8.27;;;11.60;99.90;;;;;;5055556;28;20036;-81
2023/10/23 12:43:10;;;;;;;13.93;9.45;;;11.40;99.90;;;;;;5055852;28;20045;-81
2023/10/23 12:45:35;;;;;;;12.73;9.63;;;11.40;99.90;;;;;;5069864;28;20040;-80
2023/10/23 12:48:01;;;;;;;12.77;9.32;;;11.40;99.90;;;;;;5053588;28;20037;-81
2023/10/23 12:50:28;;;;;;;12.88;8.82;;;11.40;99.90;;;;;;5071563;28;20041;-80